Time;durP1;ratioP1;P1;durP2;ratioP2;P2;SDS_P1;SDS_P2;PMS_P1;PMS_P2;Temp;Humidity;BMP_temperature;BMP_pressure;BME280_temperature;BME280_humidity;BME280_pressure;Samples;Min_cycle;Max_cycle;Signal;HPM_P1;HPM_P2
2022/07/27 00:01:36;;;;;;;4.55;3.50;;;17.60;99.90;;;;;;5013739;28;20041;-75
2022/07/27 00:04:02;;;;;;;8.48;3.60;;;17.60;99.90;;;;;;5031873;28;20020;-75
2022/07/27 00:06:27;;;;;;;5.50;3.60;;;17.50;99.90;;;;;;5025690;28;20034;-75
2022/07/27 00:08:53;;;;;;;4.40;3.22;;;17.50;99.90;;;;;;5029692;28;20036;-75
2022/07/27 00:11:18;;;;;;;5.72;3.95;;;17.50;99.90;;;;;;5033490;28;20029;-75
2022/07/27 00:13:44;;;;;;;10.60;4.22;;;17.50;99.90;;;;;;5013971;28;20117;-75
2022/07/27 00:16:10;;;;;;;4.32;3.58;;;17.40;99.90;;;;;;5005839;28;20013;-75
2022/07/27 00:18:36;;;;;;;5.65;3.65;;;17.40;99.90;;;;;;5011854;28;20030;-75
2022/07/27 00:21:01;;;;;;;8.32;3.92;;;17.30;99.90;;;;;;5013642;28;20879;-75
2022/07/27 00:23:27;;;;;;;5.43;3.85;;;17.30;99.90;;;;;;5023450;28;20100;-75
2022/07/27 00:25:52;;;;;;;5.15;3.70;;;17.30;99.90;;;;;;5033137;28;20077;-75
2022/07/27 00:28:18;;;;;;;7.32;3.70;;;17.30;99.90;;;;;;5024234;28;20030;-75
2022/07/27 00:30:44;;;;;;;4.88;3.40;;;17.30;99.90;;;;;;5013374;28;20395;-75
2022/07/27 00:33:09;;;;;;;5.68;3.88;;;17.20;99.90;;;;;;5032942;28;20100;-75
2022/07/27 00:35:35;;;;;;;6.45;3.50;;;17.30;99.90;;;;;;5033169;28;20029;-75
2022/07/27 00:38:00;;;;;;;6.97;3.47;;;17.20;99.90;;;;;;5032975;28;20108;-75
2022/07/27 00:40:26;;;;;;;6.53;3.60;;;17.20;99.90;;;;;;5014508;28;20474;-74
2022/07/27 00:42:52;;;;;;;6.55;4.75;;;17.20;99.90;;;;;;5018862;28;20174;-75
2022/07/27 00:45:18;;;;;;;9.15;3.90;;;17.20;99.90;;;;;;5033123;28;20017;-75
2022/07/27 00:47:43;;;;;;;6.95;3.60;;;17.20;99.90;;;;;;5019509;28;20038;-75
2022/07/27 00:50:09;;;;;;;4.78;3.33;;;17.20;99.90;;;;;;5012330;28;20025;-76
2022/07/27 00:52:36;;;;;;;6.95;3.55;;;17.10;99.90;;;;;;5021536;28;20466;-75
2022/07/27 00:55:02;;;;;;;7.30;3.90;;;17.10;99.90;;;;;;5026641;28;20024;-75
2022/07/27 00:57:28;;;;;;;9.00;4.30;;;17.10;99.90;;;;;;5022983;28;20087;-76
2022/07/27 00:59:54;;;;;;;5.97;4.10;;;17.10;99.90;;;;;;5030193;28;20029;-75
2022/07/27 01:02:20;;;;;;;6.75;3.75;;;17.00;99.90;;;;;;5030400;28;20076;-76
2022/07/27 01:04:46;;;;;;;7.07;3.65;;;17.00;99.90;;;;;;5014254;28;20033;-75
2022/07/27 01:07:11;;;;;;;6.72;3.40;;;17.00;99.90;;;;;;5014932;28;20413;-76
2022/07/27 01:09:55;;;;;;;9.20;3.90;;;16.90;99.90;;;;;;5028641;28;20029;-76
2022/07/27 01:12:22;;;;;;;7.25;3.40;;;16.90;99.90;;;;;;5029518;28;20549;-76
2022/07/27 01:14:49;;;;;;;5.78;3.90;;;16.80;99.90;;;;;;5012646;28;20048;-76
2022/07/27 01:17:16;;;;;;;8.48;3.80;;;16.90;99.90;;;;;;5006694;28;20416;-76
2022/07/27 01:19:41;;;;;;;8.82;3.58;;;16.80;99.90;;;;;;5010142;28;20030;-75
2022/07/27 01:22:07;;;;;;;6.40;3.05;;;16.80;99.90;;;;;;5033688;28;20080;-75
2022/07/27 01:24:34;;;;;;;8.52;3.60;;;16.80;99.90;;;;;;5033187;28;20481;-75
2022/07/27 01:27:00;;;;;;;5.63;3.75;;;16.70;99.90;;;;;;5022029;28;20068;-75
2022/07/27 01:29:27;;;;;;;10.30;3.70;;;16.70;99.90;;;;;;5011614;28;20713;-76
2022/07/27 01:31:52;;;;;;;7.07;3.33;;;16.70;99.90;;;;;;5012185;28;20034;-75
2022/07/27 01:34:18;;;;;;;9.00;3.83;;;16.70;99.90;;;;;;5011474;28;20033;-75
2022/07/27 01:36:44;;;;;;;8.13;3.90;;;16.60;99.90;;;;;;5007203;28;20030;-75
2022/07/27 01:39:14;;;;;;;7.43;3.60;;;16.60;99.90;;;;;;5012037;28;20102;-75
2022/07/27 01:41:40;;;;;;;7.05;3.45;;;16.60;99.90;;;;;;5012823;28;20092;-74
2022/07/27 01:44:06;;;;;;;8.45;3.78;;;16.50;99.90;;;;;;4994927;28;20773;-75
2022/07/27 01:46:32;;;;;;;6.38;3.40;;;16.50;99.90;;;;;;5025145;28;20033;-75
2022/07/27 01:48:57;;;;;;;8.52;3.75;;;16.40;99.90;;;;;;5009947;28;20040;-75
2022/07/27 01:51:23;;;;;;;7.13;3.60;;;16.40;99.90;;;;;;5011344;28;20027;-75
2022/07/27 01:53:48;;;;;;;10.25;3.92;;;16.30;99.90;;;;;;5011683;28;20034;-75
2022/07/27 01:56:14;;;;;;;5.85;3.47;;;16.30;99.90;;;;;;5011296;28;20045;-75
2022/07/27 01:58:42;;;;;;;4.45;3.55;;;16.30;99.90;;;;;;5011519;28;20022;-75
2022/07/27 02:01:08;;;;;;;5.72;3.60;;;16.30;99.90;;;;;;5008863;28;20165;-75
2022/07/27 02:03:35;;;;;;;5.55;3.53;;;16.20;99.90;;;;;;5010727;28;20494;-75
2022/07/27 02:06:01;;;;;;;5.82;3.63;;;16.20;99.90;;;;;;4993355;28;20060;-75
2022/07/27 02:08:27;;;;;;;7.40;3.33;;;16.20;99.90;;;;;;5011046;28;20072;-75
2022/07/27 02:13:37;;;;;;;9.63;3.75;;;16.10;99.90;;;;;;5009801;28;20543;-75
2022/07/27 02:16:03;;;;;;;11.60;4.15;;;16.10;99.90;;;;;;5001926;28;20188;-75
2022/07/27 02:18:28;;;;;;;7.88;3.35;;;16.10;99.90;;;;;;5011230;28;20057;-75
2022/07/27 02:20:54;;;;;;;6.70;3.38;;;16.10;99.90;;;;;;5011199;28;20498;-74
2022/07/27 02:23:19;;;;;;;8.73;3.25;;;16.10;99.90;;;;;;5010735;28;20364;-75
2022/07/27 02:25:45;;;;;;;10.60;3.95;;;16.00;99.90;;;;;;5010396;28;20061;-74
2022/07/27 02:28:11;;;;;;;7.60;3.33;;;16.00;99.90;;;;;;5010938;28;20030;-75
2022/07/27 02:30:36;;;;;;;6.30;3.60;;;16.00;99.90;;;;;;5010758;28;20060;-74
2022/07/27 02:33:02;;;;;;;7.75;3.60;;;16.00;99.90;;;;;;4993223;28;20093;-75
2022/07/27 02:35:28;;;;;;;5.72;3.40;;;16.00;99.90;;;;;;5009868;28;20503;-74
2022/07/27 02:37:54;;;;;;;9.18;3.50;;;16.00;99.90;;;;;;5010040;28;20076;-74
2022/07/27 02:40:19;;;;;;;5.88;3.30;;;16.00;99.90;;;;;;5009492;28;20076;-75
2022/07/27 02:42:45;;;;;;;5.65;3.20;;;16.00;99.90;;;;;;5010818;28;20052;-75
2022/07/27 02:45:11;;;;;;;6.72;3.13;;;16.00;99.90;;;;;;5004685;28;20022;-75
2022/07/27 02:47:38;;;;;;;7.90;3.20;;;16.10;99.90;;;;;;5009866;28;20034;-75
2022/07/27 02:50:05;;;;;;;6.57;3.22;;;16.10;99.90;;;;;;5010379;28;20026;-75
2022/07/27 02:52:31;;;;;;;8.15;3.47;;;16.10;99.90;;;;;;5010758;28;20033;-75
2022/07/27 02:54:57;;;;;;;5.32;2.80;;;16.10;99.90;;;;;;5010557;28;20026;-75
2022/07/27 02:57:23;;;;;;;12.15;3.10;;;16.20;99.90;;;;;;5009388;28;20088;-75
2022/07/27 02:59:48;;;;;;;5.95;3.50;;;16.10;99.90;;;;;;5001162;28;20037;-75
2022/07/27 03:02:14;;;;;;;6.40;3.40;;;16.10;99.90;;;;;;5010008;28;20538;-75
2022/07/27 03:04:39;;;;;;;8.90;3.45;;;16.10;99.90;;;;;;5009548;28;20028;-75
2022/07/27 03:07:05;;;;;;;5.18;2.97;;;16.10;99.90;;;;;;5009078;28;20379;-75
2022/07/27 03:09:31;;;;;;;6.05;3.22;;;16.10;99.90;;;;;;5009024;28;20079;-75
2022/07/27 03:11:56;;;;;;;6.60;2.88;;;16.10;99.90;;;;;;4998527;28;20057;-75
2022/07/27 03:14:22;;;;;;;6.38;2.75;;;16.10;99.90;;;;;;5001513;28;20033;-75
2022/07/27 03:16:47;;;;;;;8.57;3.53;;;16.10;99.90;;;;;;5009188;28;20044;-75
2022/07/27 03:19:13;;;;;;;6.05;2.97;;;16.10;99.90;;;;;;5010218;28;20051;-75
2022/07/27 03:21:38;;;;;;;5.25;2.80;;;16.20;99.90;;;;;;5010470;28;20122;-75
2022/07/27 03:24:04;;;;;;;8.00;3.42;;;16.20;99.90;;;;;;5010485;28;20053;-75
2022/07/27 03:26:31;;;;;;;8.27;3.25;;;16.20;99.90;;;;;;5009539;28;20445;-75
2022/07/27 03:28:56;;;;;;;6.70;2.50;;;16.20;99.90;;;;;;5000251;28;20054;-75
2022/07/27 03:31:22;;;;;;;7.38;3.03;;;16.10;99.90;;;;;;5007463;28;20086;-74
2022/07/27 03:33:48;;;;;;;6.43;2.90;;;16.10;99.90;;;;;;5009889;28;20041;-74
2022/07/27 03:36:13;;;;;;;7.28;2.50;;;16.20;99.90;;;;;;5009479;28;20026;-75
2022/07/27 03:38:39;;;;;;;7.50;2.63;;;16.20;99.90;;;;;;5009957;28;20467;-75
2022/07/27 03:41:05;;;;;;;4.18;2.70;;;16.20;99.90;;;;;;5009969;28;20049;-75
2022/07/27 03:43:32;;;;;;;4.85;3.00;;;16.20;99.90;;;;;;5010117;28;20022;-74
2022/07/27 03:45:57;;;;;;;7.97;3.20;;;16.20;99.90;;;;;;5001411;28;20026;-75
2022/07/27 03:48:23;;;;;;;8.00;4.10;;;16.20;99.90;;;;;;5009991;28;20056;-75
2022/07/27 03:50:49;;;;;;;7.20;3.35;;;16.20;99.90;;;;;;5009969;28;20030;-75
2022/07/27 03:53:16;;;;;;;7.75;3.40;;;16.30;99.90;;;;;;5010075;28;20084;-74
2022/07/27 03:55:42;;;;;;;5.82;2.90;;;16.30;99.90;;;;;;4991312;28;20065;-75
2022/07/27 03:58:07;;;;;;;9.77;3.70;;;16.30;99.90;;;;;;5009850;28;20033;-75
2022/07/27 04:00:33;;;;;;;9.73;2.95;;;16.30;99.90;;;;;;5009568;28;20045;-75
2022/07/27 04:02:58;;;;;;;6.68;2.70;;;16.30;99.90;;;;;;5009899;28;20022;-75
2022/07/27 04:05:24;;;;;;;10.52;2.53;;;16.30;99.90;;;;;;4992299;28;20033;-75
2022/07/27 04:07:50;;;;;;;5.40;2.55;;;16.30;99.90;;;;;;5009420;28;20034;-75
2022/07/27 04:10:15;;;;;;;9.68;2.85;;;16.30;99.90;;;;;;5009686;28;20049;-70
2022/07/27 04:12:41;;;;;;;7.75;2.95;;;16.30;99.90;;;;;;5007768;28;20053;-70
2022/07/27 04:15:07;;;;;;;7.10;2.60;;;16.30;99.90;;;;;;5003698;28;20026;-70
2022/07/27 04:17:33;;;;;;;5.68;2.35;;;16.30;99.90;;;;;;5012764;28;20033;-69
2022/07/27 04:19:58;;;;;;;5.53;2.42;;;16.30;99.90;;;;;;5028749;28;20021;-69
2022/07/27 04:22:24;;;;;;;7.70;3.00;;;16.30;99.90;;;;;;5025840;28;20539;-68
2022/07/27 04:24:49;;;;;;;5.25;2.97;;;16.30;99.90;;;;;;5022336;28;20568;-68
2022/07/27 04:27:15;;;;;;;9.02;3.03;;;16.30;99.90;;;;;;5024704;28;20405;-68
2022/07/27 04:29:40;;;;;;;8.15;3.03;;;16.30;99.90;;;;;;5026783;28;20450;-69
2022/07/27 04:32:06;;;;;;;9.68;2.75;;;16.30;99.90;;;;;;5023373;28;20032;-67
2022/07/27 04:34:32;;;;;;;8.68;3.05;;;16.40;99.90;;;;;;5027011;28;20037;-68
2022/07/27 04:36:57;;;;;;;5.35;2.70;;;16.40;99.90;;;;;;5024118;28;20490;-68
2022/07/27 04:39:23;;;;;;;7.50;2.47;;;16.50;99.90;;;;;;5030310;28;20105;-68
2022/07/27 04:41:48;;;;;;;4.85;2.47;;;16.50;99.90;;;;;;5027842;28;20046;-68
2022/07/27 04:44:14;;;;;;;8.57;2.78;;;16.50;99.90;;;;;;5028417;28;20735;-68
2022/07/27 04:46:39;;;;;;;8.40;2.90;;;16.50;99.90;;;;;;5028030;28;20033;-69
2022/07/27 04:49:05;;;;;;;7.40;2.72;;;16.50;99.90;;;;;;5031409;28;20032;-69
2022/07/27 04:51:30;;;;;;;7.97;2.60;;;16.60;99.90;;;;;;5029429;28;20029;-67
2022/07/27 04:53:56;;;;;;;7.82;2.80;;;16.60;99.90;;;;;;5000642;28;20022;-68
2022/07/27 04:56:21;;;;;;;5.88;2.20;;;16.70;99.90;;;;;;5031295;28;20053;-68
2022/07/27 04:58:47;;;;;;;7.57;2.45;;;16.70;99.90;;;;;;5019384;28;20431;-67
2022/07/27 05:01:13;;;;;;;7.20;2.60;;;16.70;99.90;;;;;;5028453;28;20048;-66
2022/07/27 05:03:39;;;;;;;7.57;3.13;;;16.70;99.90;;;;;;5014414;28;20018;-67
2022/07/27 05:06:17;;;;;;;6.78;2.75;;;16.70;99.90;;;;;;5022295;28;20030;-68
2022/07/27 05:08:43;;;;;;;7.28;2.50;;;16.70;99.90;;;;;;5020437;28;20028;-67
2022/07/27 05:11:09;;;;;;;5.45;2.47;;;16.70;99.90;;;;;;5023908;28;20030;-68
2022/07/27 05:13:38;;;;;;;5.13;2.72;;;16.70;99.90;;;;;;5019231;28;20038;-67
2022/07/27 05:16:06;;;;;;;4.43;2.63;;;16.80;99.90;;;;;;5022600;28;20018;-67
2022/07/27 05:18:31;;;;;;;7.07;2.80;;;16.80;99.90;;;;;;5019206;28;20056;-67
2022/07/27 05:20:57;;;;;;;8.95;2.70;;;16.80;99.90;;;;;;5021063;28;20057;-68
2022/07/27 05:23:33;;;;;;;4.82;2.40;;;16.90;99.90;;;;;;5015904;28;20048;-68
2022/07/27 05:25:59;;;;;;;8.98;2.50;;;17.00;99.90;;;;;;5015423;28;20492;-68
2022/07/27 05:28:25;;;;;;;5.95;2.25;;;17.10;99.90;;;;;;5015990;28;20033;-67
2022/07/27 05:30:50;;;;;;;9.63;3.10;;;17.10;99.90;;;;;;5021835;28;20438;-68
2022/07/27 05:33:16;;;;;;;7.97;2.63;;;17.20;99.90;;;;;;5011020;28;20113;-68
2022/07/27 05:35:42;;;;;;;6.93;3.03;;;17.40;99.90;;;;;;5012166;28;20489;-68
2022/07/27 05:38:09;;;;;;;10.93;2.92;;;17.50;99.90;;;;;;5009721;28;20517;-68
2022/07/27 05:40:34;;;;;;;6.68;2.47;;;17.70;99.90;;;;;;5007834;28;20382;-68
2022/07/27 05:43:00;;;;;;;6.28;2.80;;;17.80;99.90;;;;;;5008876;28;20030;-68
2022/07/27 05:45:26;;;;;;;5.03;2.17;;;17.90;99.90;;;;;;5003581;28;20467;-68
2022/07/27 05:47:53;;;;;;;7.57;2.40;;;18.00;99.90;;;;;;5008604;28;20040;-68
2022/07/27 05:50:19;;;;;;;7.03;2.22;;;18.00;99.90;;;;;;5012260;28;20761;-68
2022/07/27 05:52:45;;;;;;;7.70;3.20;;;18.10;99.90;;;;;;5014716;28;20104;-68
2022/07/27 05:55:11;;;;;;;6.40;2.50;;;18.20;99.90;;;;;;5014415;28;20472;-68
2022/07/27 05:57:37;;;;;;;4.85;2.13;;;18.20;99.90;;;;;;5019373;28;20474;-68
2022/07/27 06:00:05;;;;;;;5.45;2.30;;;18.30;99.90;;;;;;5007667;28;20030;-68
2022/07/27 06:02:30;;;;;;;9.80;2.35;;;18.40;99.90;;;;;;5004889;28;20026;-67
2022/07/27 06:04:59;;;;;;;9.07;2.30;;;18.50;99.90;;;;;;5006905;28;20031;-68
2022/07/27 06:10:12;;;;;;;10.65;2.83;;;18.50;99.90;;;;;;5008135;28;20102;-68
2022/07/27 06:12:41;;;;;;;4.00;2.55;;;18.60;99.90;;;;;;5006228;28;20045;-68
2022/07/27 06:15:08;;;;;;;9.43;2.92;;;18.80;99.90;;;;;;5008850;28;20036;-68
2022/07/27 06:17:34;;;;;;;3.40;2.28;;;18.70;99.90;;;;;;5008453;28;20113;-68
2022/07/27 06:19:59;;;;;;;6.53;2.30;;;18.70;99.90;;;;;;5009408;28;20123;-68
2022/07/27 06:22:25;;;;;;;6.10;2.67;;;18.80;99.90;;;;;;5010449;28;20049;-69
2022/07/27 06:24:54;;;;;;;5.80;2.40;;;18.80;99.90;;;;;;5012971;28;20021;-68
2022/07/27 06:27:20;;;;;;;4.57;2.58;;;18.80;99.90;;;;;;4992447;28;20339;-68
2022/07/27 06:29:46;;;;;;;6.80;2.35;;;18.90;99.90;;;;;;5004926;28;20030;-68
2022/07/27 06:32:11;;;;;;;8.73;2.33;;;19.00;99.90;;;;;;5007876;28;20029;-68
2022/07/27 06:34:37;;;;;;;7.18;2.35;;;19.20;99.90;;;;;;5009854;28;20064;-68
2022/07/27 06:37:03;;;;;;;5.78;2.35;;;19.30;99.90;;;;;;5002305;28;20060;-68
2022/07/27 06:39:29;;;;;;;7.82;2.30;;;19.50;99.90;;;;;;5000196;28;20025;-68
2022/07/27 06:41:55;;;;;;;5.32;2.30;;;19.70;99.90;;;;;;5007026;28;20030;-68
2022/07/27 06:44:20;;;;;;;5.07;2.13;;;19.70;99.90;;;;;;5003925;28;20821;-67
2022/07/27 06:46:46;;;;;;;4.63;2.42;;;19.80;99.90;;;;;;5000918;28;20061;-67
2022/07/27 06:49:12;;;;;;;5.60;2.30;;;19.80;99.90;;;;;;5001140;28;20061;-68
2022/07/27 06:51:38;;;;;;;7.25;2.03;;;19.80;99.90;;;;;;4999819;28;20056;-68
2022/07/27 06:54:04;;;;;;;5.60;1.90;;;19.80;99.90;;;;;;5001346;28;20017;-68
2022/07/27 06:56:30;;;;;;;3.30;2.10;;;19.90;99.90;;;;;;5002779;28;20095;-68
2022/07/27 06:58:56;;;;;;;3.85;2.20;;;20.00;99.90;;;;;;4999963;28;20378;-68
2022/07/27 07:01:22;;;;;;;3.95;2.03;;;20.00;99.90;;;;;;5001785;28;20046;-67
2022/07/27 07:03:47;;;;;;;7.45;3.10;;;20.10;99.90;;;;;;5000749;28;20133;-68
2022/07/27 07:06:13;;;;;;;7.80;2.50;;;20.10;99.90;;;;;;5001912;28;20499;-67
2022/07/27 07:08:40;;;;;;;6.05;1.90;;;20.20;99.90;;;;;;5010087;28;20485;-67
2022/07/27 07:11:05;;;;;;;6.18;2.10;;;20.30;99.90;;;;;;4997757;28;20405;-68
2022/07/27 07:13:31;;;;;;;7.85;2.45;;;20.30;99.90;;;;;;5007444;28;20026;-67
2022/07/27 07:15:56;;;;;;;4.55;2.13;;;20.30;99.90;;;;;;5008262;28;20026;-67
2022/07/27 07:18:22;;;;;;;4.20;2.20;;;20.40;99.90;;;;;;5012851;28;20034;-68
2022/07/27 07:20:48;;;;;;;5.13;2.10;;;20.50;99.90;;;;;;5009325;28;20030;-68
2022/07/27 07:23:13;;;;;;;6.45;2.10;;;20.60;99.90;;;;;;5002677;28;20027;-68
2022/07/27 07:25:40;;;;;;;4.28;2.03;;;20.80;99.90;;;;;;5003539;28;20026;-68
2022/07/27 07:28:06;;;;;;;5.38;2.08;;;20.80;99.90;;;;;;5001283;28;20152;-68
2022/07/27 07:30:32;;;;;;;7.95;2.42;;;20.80;99.90;;;;;;5003824;28;20034;-68
2022/07/27 07:32:57;;;;;;;5.25;2.17;;;20.80;99.90;;;;;;5003245;28;20028;-68
2022/07/27 07:35:23;;;;;;;13.20;2.70;;;20.80;99.90;;;;;;5002325;28;20030;-68
2022/07/27 07:37:49;;;;;;;5.13;2.50;;;20.80;99.90;;;;;;5001597;28;20029;-68
2022/07/27 07:40:14;;;;;;;4.75;2.08;;;20.90;99.90;;;;;;5002579;28;20038;-68
2022/07/27 07:43:02;;;;;;;4.53;1.83;;;21.10;99.90;;;;;;5001552;28;20610;-68
2022/07/27 07:45:34;;;;;;;6.63;2.15;;;21.30;99.90;;;;;;5004350;28;20037;-68
2022/07/27 07:47:59;;;;;;;4.85;2.20;;;21.40;99.90;;;;;;5003891;28;20022;-69
2022/07/27 07:50:26;;;;;;;5.35;2.08;;;21.60;99.90;;;;;;5003162;28;20033;-67
2022/07/27 07:53:04;;;;;;;4.45;2.35;;;21.60;99.90;;;;;;5011752;28;20084;-68
2022/07/27 07:55:38;;;;;;;6.55;2.30;;;21.60;99.90;;;;;;4991398;28;20048;-67
2022/07/27 07:58:27;;;;;;;5.15;2.40;;;21.70;99.90;;;;;;4994870;28;20078;-67
2022/07/27 08:00:53;;;;;;;8.98;2.92;;;21.80;99.90;;;;;;5012111;28;20034;-67
2022/07/27 08:03:18;;;;;;;5.57;2.28;;;22.10;99.90;;;;;;5005883;28;20033;-67
2022/07/27 08:05:44;;;;;;;3.67;2.47;;;22.10;99.90;;;;;;5010704;28;20030;-67
2022/07/27 08:08:10;;;;;;;5.07;2.55;;;21.90;99.90;;;;;;5011133;28;20475;-68
2022/07/27 08:10:35;;;;;;;6.28;2.55;;;21.90;99.90;;;;;;5010376;28;20418;-68
2022/07/27 08:13:01;;;;;;;3.17;2.10;;;21.90;99.90;;;;;;4995591;28;20529;-66
2022/07/27 08:15:27;;;;;;;5.10;2.25;;;21.90;99.90;;;;;;5008727;28;20026;-67
2022/07/27 08:17:53;;;;;;;6.32;2.40;;;22.00;99.90;;;;;;5014380;28;20033;-67
2022/07/27 08:20:18;;;;;;;5.28;2.30;;;21.90;99.90;;;;;;5014381;28;20386;-67
2022/07/27 08:22:44;;;;;;;10.13;2.33;;;22.00;99.90;;;;;;5014306;28;20284;-67
2022/07/27 08:25:11;;;;;;;3.92;2.45;;;22.10;99.90;;;;;;5014393;28;20061;-67
2022/07/27 08:27:36;;;;;;;5.95;2.05;;;22.20;99.90;;;;;;5014045;28;20505;-67
2022/07/27 08:30:03;;;;;;;5.53;1.90;;;22.20;99.90;;;;;;5014170;28;20022;-67
2022/07/27 08:32:29;;;;;;;3.58;1.95;;;22.20;99.90;;;;;;5014084;28;20026;-68
2022/07/27 08:34:55;;;;;;;6.22;2.13;;;22.40;99.90;;;;;;5013566;28;20041;-67
2022/07/27 08:37:21;;;;;;;2.83;1.67;;;22.50;99.90;;;;;;5014223;28;20478;-68
2022/07/27 08:39:46;;;;;;;4.15;1.77;;;22.50;99.90;;;;;;5013349;28;20046;-66
2022/07/27 08:42:12;;;;;;;6.88;2.10;;;22.50;99.90;;;;;;5013201;28;20399;-66
2022/07/27 08:44:38;;;;;;;5.13;1.77;;;22.60;99.90;;;;;;5012892;28;20052;-66
2022/07/27 08:47:04;;;;;;;5.55;2.20;;;22.60;99.90;;;;;;5015278;28;20130;-67
2022/07/27 08:49:31;;;;;;;6.18;1.80;;;22.70;99.90;;;;;;5023421;28;20848;-66
2022/07/27 08:51:57;;;;;;;5.25;2.20;;;22.70;99.90;;;;;;5025776;28;20065;-66
2022/07/27 08:54:24;;;;;;;6.03;2.30;;;22.80;99.90;;;;;;5002766;28;20025;-66
2022/07/27 08:56:50;;;;;;;5.57;1.77;;;22.90;99.90;;;;;;5022511;28;20112;-66
2022/07/27 08:59:15;;;;;;;6.47;2.20;;;22.90;99.90;;;;;;5012974;28;20049;-66
2022/07/27 09:01:41;;;;;;;5.90;2.53;;;22.90;99.90;;;;;;5019167;28;20045;-67
2022/07/27 09:04:08;;;;;;;4.65;2.03;;;22.90;99.90;;;;;;5022422;28;20025;-66
2022/07/27 09:06:42;;;;;;;3.50;1.90;;;22.90;99.90;;;;;;5027168;28;20018;-66
2022/07/27 09:09:09;;;;;;;;;;;23.00;99.90;;;;;;5021264;28;20030;-66
2022/07/27 09:11:37;;;;;;;4.22;2.10;;;23.00;99.90;;;;;;5013546;28;19948;-66
2022/07/27 09:14:07;;;;;;;8.07;1.88;;;23.10;99.90;;;;;;5006638;28;20022;-68
2022/07/27 09:16:34;;;;;;;7.40;2.03;;;23.10;99.90;;;;;;5013331;28;20022;-67
2022/07/27 09:19:06;;;;;;;7.57;2.20;;;23.30;99.90;;;;;;5012677;28;20152;-66
2022/07/27 09:21:33;;;;;;;5.63;1.98;;;23.30;99.90;;;;;;5012873;28;20467;-67
2022/07/27 09:24:08;;;;;;;5.63;2.05;;;23.50;99.90;;;;;;5012944;28;20022;-66
2022/07/27 09:26:34;;;;;;;6.97;2.00;;;23.80;99.90;;;;;;5014490;28;20031;-67
2022/07/27 09:29:07;;;;;;;4.43;2.05;;;23.90;99.90;;;;;;5019213;28;20021;-67
2022/07/27 09:31:43;;;;;;;3.70;1.80;;;23.90;99.90;;;;;;4995142;28;20029;-66
2022/07/27 09:34:09;;;;;;;6.47;2.20;;;24.00;99.90;;;;;;5002200;28;20073;-66
2022/07/27 09:36:54;;;;;;;3.67;1.92;;;24.10;99.90;;;;;;5011919;28;20102;-66
2022/07/27 09:39:21;;;;;;;3.92;2.00;;;24.30;99.90;;;;;;5016431;28;20057;-67
2022/07/27 09:41:51;;;;;;;6.10;1.60;;;24.40;99.90;;;;;;5023923;28;20034;-67
2022/07/27 09:44:30;;;;;;;4.70;1.70;;;24.50;99.90;;;;;;5009293;28;20386;-67
2022/07/27 09:46:56;;;;;;;5.43;1.90;;;24.50;99.90;;;;;;5009528;28;20034;-67
2022/07/27 09:49:33;;;;;;;3.75;1.60;;;24.60;99.90;;;;;;5011384;28;20073;-67
2022/07/27 09:52:01;;;;;;;4.00;1.80;;;24.60;99.90;;;;;;5011007;28;20033;-67
2022/07/27 09:54:27;;;;;;;3.65;2.03;;;24.70;99.90;;;;;;5010995;28;20018;-67
2022/07/27 09:57:02;;;;;;;4.25;1.70;;;24.80;99.90;;;;;;5010874;28;20040;-67
2022/07/27 09:59:28;;;;;;;4.30;1.75;;;24.90;99.90;;;;;;5011490;28;20025;-67
2022/07/27 10:01:55;;;;;;;3.60;1.77;;;25.00;99.90;;;;;;5010498;28;20061;-67
2022/07/27 10:04:21;;;;;;;3.88;2.08;;;25.20;99.90;;;;;;5010603;28;20023;-67
2022/07/27 10:06:48;;;;;;;5.88;1.98;;;25.50;99.90;;;;;;5011004;28;20038;-67
2022/07/27 10:09:13;;;;;;;3.38;2.10;;;25.80;99.90;;;;;;5010982;28;20058;-67
2022/07/27 10:11:39;;;;;;;6.88;1.50;;;25.80;99.90;;;;;;5010582;28;20131;-67
2022/07/27 10:14:05;;;;;;;4.80;1.95;;;25.70;99.90;;;;;;5008793;28;20041;-67
2022/07/27 10:16:33;;;;;;;5.75;1.70;;;25.80;99.90;;;;;;5010693;28;20425;-67
2022/07/27 10:19:12;;;;;;;4.05;1.67;;;25.80;99.90;;;;;;5006300;28;20033;-67
2022/07/27 10:21:39;;;;;;;4.57;1.80;;;25.90;99.90;;;;;;5022283;28;20101;-67
2022/07/27 10:24:13;;;;;;;4.00;2.00;;;26.00;99.90;;;;;;5011721;28;20532;-67
2022/07/27 10:26:40;;;;;;;;;;;26.00;99.90;;;;;;5011699;28;20068;-67
2022/07/27 10:29:14;;;;;;;3.08;1.70;;;26.00;99.90;;;;;;5010992;28;20053;-67
2022/07/27 10:32:01;;;;;;;5.50;2.10;;;26.30;99.90;;;;;;5016564;28;20108;-66
2022/07/27 10:34:39;;;;;;;4.45;1.73;;;26.50;99.90;;;;;;5017614;28;20053;-67
2022/07/27 10:37:13;;;;;;;3.85;1.70;;;26.80;99.90;;;;;;5009054;28;20080;-67
2022/07/27 10:39:45;;;;;;;3.85;1.80;;;26.70;99.90;;;;;;5010087;28;20028;-70
2022/07/27 10:42:16;;;;;;;4.55;2.20;;;26.60;99.90;;;;;;5009774;28;20057;-66
2022/07/27 10:44:59;;;;;;;9.27;1.98;;;26.40;99.90;;;;;;5010426;28;20022;-67
2022/07/27 10:47:27;;;;;;;5.45;1.92;;;26.40;99.90;;;;;;4997040;28;20189;-66
2022/07/27 10:50:16;;;;;;;4.07;2.00;;;26.40;99.90;;;;;;5010386;28;20034;-67
2022/07/27 10:52:51;;;;;;;4.85;1.70;;;26.20;99.90;;;;;;5005616;28;20808;-67
2022/07/27 10:55:29;;;;;;;2.47;1.70;;;26.00;99.90;;;;;;5009626;28;20041;-67
2022/07/27 10:58:14;;;;;;;3.80;1.60;;;26.00;99.90;;;;;;5009589;28;20506;-67
2022/07/27 11:00:49;;;;;;;4.07;1.70;;;25.80;99.90;;;;;;5008951;28;20170;-67
2022/07/27 11:03:23;;;;;;;5.72;1.80;;;25.80;99.90;;;;;;5010176;28;20105;-67
2022/07/27 11:06:19;;;;;;;2.35;1.58;;;25.80;99.90;;;;;;5009695;28;20026;-67
2022/07/27 11:08:46;;;;;;;3.85;1.77;;;25.70;99.90;;;;;;5010239;28;20109;-67
2022/07/27 11:11:17;;;;;;;3.78;1.50;;;25.60;99.90;;;;;;5010095;28;20026;-67
2022/07/27 11:13:44;;;;;;;4.22;1.70;;;25.60;99.90;;;;;;5008450;28;20026;-66
2022/07/27 11:16:12;;;;;;;7.03;1.88;;;25.60;99.90;;;;;;5014290;28;20502;-66
2022/07/27 11:18:40;;;;;;;3.03;1.70;;;25.60;99.90;;;;;;5013424;28;20022;-65
2022/07/27 11:21:27;;;;;;;5.05;1.80;;;25.50;99.90;;;;;;5010943;28;20474;-66
2022/07/27 11:23:58;;;;;;;6.57;2.10;;;25.60;99.90;;;;;;5011651;28;20022;-66
2022/07/27 11:26:29;;;;;;;3.08;1.55;;;25.80;99.90;;;;;;5018509;28;20018;-66
2022/07/27 11:28:55;;;;;;;2.83;1.38;;;25.90;99.90;;;;;;5018675;28;20109;-66
2022/07/27 11:31:21;;;;;;;5.07;1.50;;;26.00;99.90;;;;;;5018316;28;20109;-72
2022/07/27 11:33:57;;;;;;;2.40;1.50;;;26.10;99.90;;;;;;5019093;28;20067;-66
2022/07/27 11:36:44;;;;;;;3.30;1.55;;;26.30;99.90;;;;;;5019285;28;20028;-68
2022/07/27 11:39:16;;;;;;;3.63;1.80;;;26.50;99.90;;;;;;5027061;28;20056;-67
2022/07/27 11:41:42;;;;;;;4.78;1.65;;;26.40;99.90;;;;;;5035036;28;20418;-66
2022/07/27 11:44:16;;;;;;;4.22;1.40;;;26.60;99.90;;;;;;5018133;28;20038;-66
2022/07/27 11:46:43;;;;;;;7.63;1.50;;;27.00;99.90;;;;;;5030304;28;20034;-66
2022/07/27 11:49:13;;;;;;;3.80;1.50;;;27.50;99.50;;;;;;5020015;28;20026;-66
2022/07/27 11:51:46;;;;;;;3.55;1.50;;;28.00;99.10;;;;;;5028734;28;20056;-67
2022/07/27 11:54:23;;;;;;;3.47;1.33;;;28.30;98.80;;;;;;5020066;28;20053;-66
2022/07/27 11:56:56;;;;;;;7.05;1.92;;;28.50;98.80;;;;;;5019348;28;20029;-66
2022/07/27 11:59:25;;;;;;;5.25;1.50;;;28.40;96.70;;;;;;5019385;28;20406;-66
2022/07/27 12:01:55;;;;;;;3.72;1.48;;;28.00;97.60;;;;;;5021737;28;20037;-66
2022/07/27 12:04:29;;;;;;;5.20;1.58;;;27.70;99.80;;;;;;5017497;28;20026;-66
2022/07/27 12:07:00;;;;;;;3.83;1.40;;;27.30;99.20;;;;;;5017572;28;20026;-66
2022/07/27 12:09:27;;;;;;;3.28;1.58;;;27.00;99.70;;;;;;5017188;28;20022;-66
2022/07/27 12:11:56;;;;;;;5.55;1.40;;;26.70;99.90;;;;;;5017610;28;20022;-66
2022/07/27 12:14:53;;;;;;;7.68;1.50;;;26.50;99.90;;;;;;5013287;28;20028;-66
2022/07/27 12:17:37;;;;;;;5.70;1.80;;;26.10;99.90;;;;;;5016198;28;20109;-67
2022/07/27 12:20:11;;;;;;;5.60;1.52;;;26.00;99.90;;;;;;5017148;28;20025;-66
2022/07/27 12:22:44;;;;;;;5.80;1.70;;;25.90;99.90;;;;;;5014720;28;21680;-67
2022/07/27 12:25:24;;;;;;;4.40;2.08;;;25.80;99.90;;;;;;5010706;28;20064;-67
2022/07/27 12:28:11;;;;;;;3.35;1.50;;;25.80;99.90;;;;;;5004464;28;20037;-66
2022/07/27 12:30:48;;;;;;;4.60;1.80;;;25.80;99.90;;;;;;5018641;28;20121;-66
2022/07/27 12:33:35;;;;;;;5.10;1.70;;;26.00;99.90;;;;;;5014344;28;20026;-66
2022/07/27 12:36:06;;;;;;;5.85;1.75;;;26.30;99.90;;;;;;5014507;28;20110;-66
2022/07/27 12:38:43;;;;;;;3.33;1.40;;;26.30;99.90;;;;;;5013616;28;20459;-67
2022/07/27 12:41:09;;;;;;;2.50;1.42;;;26.30;99.90;;;;;;5016964;28;20014;-66
2022/07/27 12:43:35;;;;;;;4.63;1.50;;;26.50;99.90;;;;;;5021758;28;20185;-67
2022/07/27 12:46:10;;;;;;;6.82;1.73;;;26.50;99.90;;;;;;4980149;28;20776;-67
2022/07/27 12:48:40;;;;;;;4.20;1.60;;;26.60;99.90;;;;;;5025779;28;20112;-66
2022/07/27 12:51:08;;;;;;;5.30;1.85;;;26.60;99.90;;;;;;5015288;28;20370;-67
2022/07/27 12:53:35;;;;;;;6.75;1.80;;;26.80;99.90;;;;;;5014494;28;20066;-66
2022/07/27 12:56:04;;;;;;;2.15;1.52;;;27.00;99.10;;;;;;5013339;28;20021;-67
2022/07/27 12:58:30;;;;;;;3.05;1.40;;;27.00;99.60;;;;;;5007014;28;20471;-68